createdAt,value
2022-08-20T00:00:05.581Z,98691.09
2022-08-20T00:03:13.626Z,98687.53
2022-08-20T00:06:19.121Z,98688.47
2022-08-20T00:09:20.851Z,98677.91
2022-08-20T00:12:22.725Z,98685.16
2022-08-20T00:15:29.407Z,98687.53
2022-08-20T00:18:31.184Z,98689.13
2022-08-20T00:21:33.463Z,98692.88
2022-08-20T00:24:36.932Z,98689.88
2022-08-20T00:27:38.878Z,98696.34
2022-08-20T00:30:43.501Z,98697.91
2022-08-20T00:33:45.760Z,98702.66
2022-08-20T00:36:47.519Z,98698.94
2022-08-20T00:39:49.229Z,98678.44
2022-08-20T00:42:57.419Z,98670.47
2022-08-20T00:46:01.138Z,98661.72
2022-08-20T00:49:07.945Z,98660.56
2022-08-20T00:52:14.134Z,98645.25
2022-08-20T00:55:18.026Z,98620.09
2022-08-20T00:58:20.036Z,98610.69
2022-08-20T01:01:22.985Z,98630.91
2022-08-20T01:04:28.017Z,98621.00
2022-08-20T01:07:34.745Z,98614.03
2022-08-20T01:10:39.449Z,98586.97
2022-08-20T01:13:41.494Z,98569.19
2022-08-20T01:16:44.936Z,98572.22
2022-08-20T01:20:01.622Z,98599.34
2022-08-20T01:23:31.091Z,98610.25
2022-08-20T01:26:42.791Z,98598.59
2022-08-20T01:29:45.021Z,98592.69
2022-08-20T01:32:46.972Z,98578.59
2022-08-20T01:35:50.443Z,98569.41
2022-08-20T01:38:54.703Z,98562.63
2022-08-20T01:42:30.349Z,98571.63
2022-08-20T01:45:33.148Z,98564.53
2022-08-20T01:48:34.830Z,98567.44
2022-08-20T01:51:37.031Z,98564.59
2022-08-20T01:54:39.318Z,98560.88
2022-08-20T01:57:41.316Z,98568.78
2022-08-20T02:00:43.350Z,98570.88
2022-08-20T02:03:45.082Z,98565.91
2022-08-20T02:06:56.531Z,98573.44
2022-08-20T02:10:00.630Z,98562.56
2022-08-20T02:13:02.882Z,98559.28
2022-08-20T02:16:06.017Z,98557.66
2022-08-20T02:19:15.266Z,98563.53
2022-08-20T02:22:22.463Z,98568.13
2022-08-20T02:25:28.746Z,98560.59
2022-08-20T02:28:33.122Z,98574.63
2022-08-20T02:31:36.220Z,98563.22
2022-08-20T02:34:45.493Z,98555.56
2022-08-20T02:37:47.456Z,98556.81
2022-08-20T02:40:50.060Z,98555.91
2022-08-20T02:43:51.774Z,98557.44
2022-08-20T02:46:53.568Z,98560.94
2022-08-20T02:49:55.388Z,98558.22
2022-08-20T02:52:57.103Z,98558.13
2022-08-20T02:55:59.761Z,98559.78
2022-08-20T02:59:01.634Z,98567.78
2022-08-20T03:02:03.548Z,98562.69
2022-08-20T03:05:05.748Z,98571.16
2022-08-20T03:08:10.628Z,98570.88
2022-08-20T03:11:12.921Z,98576.91
2022-08-20T03:14:14.769Z,98573.38
2022-08-20T03:17:16.586Z,98565.34
2022-08-20T03:20:18.420Z,98569.34
2022-08-20T03:23:26.096Z,98569.59
2022-08-20T03:26:27.823Z,98570.16
2022-08-20T03:29:30.056Z,98570.75
2022-08-20T03:32:31.867Z,98575.91
2022-08-20T03:35:35.248Z,98583.84
2022-08-20T03:38:37.106Z,98593.03
2022-08-20T03:41:39.292Z,98593.63
2022-08-20T03:44:41.015Z,98598.78
2022-08-20T03:47:42.746Z,98593.38
2022-08-20T03:50:45.562Z,98593.91
2022-08-20T03:53:47.258Z,98585.72
2022-08-20T03:56:48.988Z,98581.41
2022-08-20T03:59:57.995Z,98582.81
2022-08-20T04:03:00.864Z,98583.75
2022-08-20T04:06:03.042Z,98589.91
2022-08-20T04:09:04.956Z,98585.81
2022-08-20T04:12:07.416Z,98598.09
2022-08-20T04:15:12.532Z,98601.69
2022-08-20T04:18:15.018Z,98594.19
2022-08-20T04:21:16.804Z,98603.94
2022-08-20T04:24:22.005Z,98605.22
2022-08-20T04:27:33.119Z,98605.09
2022-08-20T04:30:34.951Z,98601.78
2022-08-20T04:33:36.704Z,98604.28
2022-08-20T04:36:38.448Z,98605.97
2022-08-20T04:39:40.174Z,98606.81
2022-08-20T04:42:41.887Z,98610.41
2022-08-20T04:45:46.411Z,98614.50
2022-08-20T04:48:48.684Z,98620.44
2022-08-20T04:51:51.008Z,98628.16
2022-08-20T04:54:52.837Z,98624.34
2022-08-20T04:57:55.491Z,98621.44
2022-08-20T05:01:01.692Z,98615.44
2022-08-20T05:04:03.815Z,98619.09
2022-08-20T05:07:05.514Z,98623.59
2022-08-20T05:10:10.059Z,98613.31
2022-08-20T05:13:12.610Z,98605.69
2022-08-20T05:16:15.196Z,98599.25
2022-08-20T05:19:17.426Z,98618.22
2022-08-20T05:22:19.270Z,98626.00
2022-08-20T05:25:21.903Z,98630.25
2022-08-20T05:28:27.327Z,98631.56
2022-08-20T05:31:32.467Z,98637.16
2022-08-20T05:34:35.894Z,98630.44
2022-08-20T05:37:41.177Z,98640.75
2022-08-20T05:40:43.000Z,98641.50
2022-08-20T05:43:45.702Z,98653.16
2022-08-20T05:46:48.692Z,98652.34
2022-08-20T05:49:50.472Z,98644.66
2022-08-20T05:52:52.272Z,98628.75
2022-08-20T05:55:54.336Z,98634.44
2022-08-20T05:58:56.510Z,98636.84
2022-08-20T06:01:58.221Z,98641.59
2022-08-20T06:05:00.197Z,98652.00
2022-08-20T06:08:05.803Z,98647.56
2022-08-20T06:11:09.724Z,98668.00
2022-08-20T06:14:11.587Z,98671.53
2022-08-20T06:17:15.875Z,98679.41
2022-08-20T06:20:17.646Z,98683.03
2022-08-20T06:23:20.743Z,98677.69
2022-08-20T06:26:24.096Z,98672.66
2022-08-20T06:29:35.211Z,98662.88
2022-08-20T06:32:37.348Z,98667.09
2022-08-20T06:35:39.197Z,98670.06
2022-08-20T06:38:41.408Z,98661.56
2022-08-20T06:41:45.061Z,98668.94
2022-08-20T06:44:50.881Z,98667.53
2022-08-20T06:47:59.024Z,98670.41
2022-08-20T06:51:01.550Z,98666.84
2022-08-20T06:54:05.099Z,98665.53
2022-08-20T06:57:06.872Z,98670.63
2022-08-20T07:00:14.815Z,98674.34
2022-08-20T07:03:16.811Z,98675.59
2022-08-20T07:06:19.060Z,98674.06
2022-08-20T07:09:21.644Z,98674.66
2022-08-20T07:12:23.358Z,98676.50
2022-08-20T07:15:27.807Z,98676.31
2022-08-20T07:18:29.659Z,98679.38
2022-08-20T07:21:31.415Z,98682.03
2022-08-20T07:24:35.732Z,98684.16
2022-08-20T07:27:39.641Z,98687.25
2022-08-20T07:31:00.815Z,98680.25
2022-08-20T07:34:15.688Z,98688.41
2022-08-20T07:37:17.448Z,98686.22
2022-08-20T07:40:26.123Z,98683.50
2022-08-20T07:43:28.390Z,98683.78
2022-08-20T07:46:31.615Z,98681.88
2022-08-20T07:49:38.370Z,98690.06
2022-08-20T07:52:40.365Z,98685.63
2022-08-20T07:55:42.425Z,98691.06
2022-08-20T07:58:59.871Z,98699.78
2022-08-20T08:02:01.632Z,98702.22
2022-08-20T08:05:05.396Z,98689.97
2022-08-20T08:08:09.965Z,98687.50
2022-08-20T08:11:12.119Z,98682.09
2022-08-20T08:14:17.075Z,98674.22
2022-08-20T08:17:19.428Z,98681.28
2022-08-20T08:20:21.948Z,98679.09
2022-08-20T08:23:32.043Z,98695.50
2022-08-20T08:26:34.420Z,98687.03
2022-08-20T08:29:37.239Z,98697.78
2022-08-20T08:32:59.567Z,98700.34
2022-08-20T08:36:06.129Z,98684.25
2022-08-20T08:39:08.009Z,98682.34
2022-08-20T08:42:27.137Z,98690.50
2022-08-20T08:45:35.476Z,98686.53
2022-08-20T08:48:46.066Z,98672.31
2022-08-20T08:51:52.195Z,98676.81
2022-08-20T08:55:00.145Z,98675.69
2022-08-20T08:58:04.355Z,98673.53
2022-08-20T09:01:55.163Z,98671.88
2022-08-20T09:04:45.355Z,98681.47
2022-08-20T09:07:53.149Z,98671.31
2022-08-20T09:11:06.123Z,98666.91
2022-08-20T09:14:07.839Z,98668.03
2022-08-20T09:17:09.619Z,98667.91
2022-08-20T09:20:11.564Z,98660.50
2022-08-20T09:23:13.397Z,98667.31
2022-08-20T09:26:15.166Z,98673.50
2022-08-20T09:29:17.318Z,98680.28
2022-08-20T09:32:24.561Z,98662.38
2022-08-20T09:35:28.934Z,98671.28
2022-08-20T09:38:30.701Z,98662.91
2022-08-20T09:41:33.729Z,98662.59
2022-08-20T09:44:36.371Z,98670.00
2022-08-20T09:47:39.787Z,98666.31
2022-08-20T09:50:57.643Z,98667.69
2022-08-20T09:53:59.980Z,98689.00
2022-08-20T09:57:07.310Z,98678.97
2022-08-20T10:00:12.361Z,98668.16
2022-08-20T10:03:14.702Z,98654.53
2022-08-20T10:06:20.534Z,98649.16
2022-08-20T10:09:22.631Z,98650.53
2022-08-20T10:12:24.364Z,98647.81
2022-08-20T10:15:26.162Z,98649.34
2022-08-20T10:18:27.902Z,98642.34
2022-08-20T10:21:31.930Z,98638.53
2022-08-20T10:24:36.127Z,98636.84
2022-08-20T10:27:39.022Z,98641.16
2022-08-20T10:30:40.746Z,98648.66
2022-08-20T10:33:42.894Z,98640.03
2022-08-20T10:36:44.857Z,98646.97
2022-08-20T10:39:47.333Z,98641.44
2022-08-20T10:42:49.145Z,98643.53
2022-08-20T10:45:52.008Z,98631.69
2022-08-20T10:48:53.808Z,98624.72
2022-08-20T10:51:56.463Z,98615.22
2022-08-20T10:54:59.120Z,98619.69
2022-08-20T10:58:00.842Z,98629.13
2022-08-20T11:01:02.641Z,98638.53
2022-08-20T11:04:05.010Z,98629.00
2022-08-20T11:07:49.431Z,98626.50
2022-08-20T11:10:53.214Z,98630.59
2022-08-20T11:13:54.988Z,98637.34
2022-08-20T11:16:58.174Z,98625.69
2022-08-20T11:20:01.080Z,98626.50
2022-08-20T11:23:03.628Z,98648.78
2022-08-20T11:26:05.611Z,98627.59
2022-08-20T11:29:07.316Z,98629.78
2022-08-20T11:32:09.042Z,98641.22
2022-08-20T11:35:40.649Z,98646.97
2022-08-20T11:38:33.194Z,98630.28
2022-08-20T11:41:34.938Z,98646.69
2022-08-20T11:44:37.091Z,98649.22
2022-08-20T11:47:39.075Z,98648.09
2022-08-20T11:50:41.207Z,98648.66
2022-08-20T11:53:42.871Z,98651.94
2022-08-20T11:56:45.817Z,98655.41
2022-08-20T11:59:53.674Z,98645.03
2022-08-20T12:02:55.619Z,98664.13
2022-08-20T12:05:57.951Z,98677.69
2022-08-20T12:09:00.087Z,98664.03
2022-08-20T12:12:01.944Z,98670.75
2022-08-20T12:15:04.287Z,98676.19
2022-08-20T12:18:09.347Z,98684.22
2022-08-20T12:21:11.843Z,98676.66
2022-08-20T12:24:13.600Z,98679.78
2022-08-20T12:27:20.184Z,98676.47
2022-08-20T12:30:23.860Z,98678.47
2022-08-20T12:33:26.185Z,98674.56
2022-08-20T12:36:27.936Z,98668.09
2022-08-20T12:39:31.588Z,98671.63
2022-08-20T12:42:33.477Z,98666.59
2022-08-20T12:45:36.214Z,98665.09
2022-08-20T12:48:38.108Z,98663.88
2022-08-20T12:51:39.803Z,98657.88
2022-08-20T12:54:42.074Z,98654.28
2022-08-20T12:57:46.898Z,98646.44
2022-08-20T13:00:50.928Z,98651.13
2022-08-20T13:03:52.984Z,98648.66
2022-08-20T13:07:00.804Z,98659.47
2022-08-20T13:10:05.170Z,98644.19
2022-08-20T13:13:06.929Z,98645.44
2022-08-20T13:16:08.644Z,98655.16
2022-08-20T13:19:10.527Z,98643.00
2022-08-20T13:22:14.044Z,98640.25
2022-08-20T13:25:15.804Z,98635.75
2022-08-20T13:28:17.549Z,98636.44
2022-08-20T13:31:19.349Z,98635.06
2022-08-20T13:34:21.806Z,98632.31
2022-08-20T13:37:26.822Z,98638.56
2022-08-20T13:40:28.689Z,98631.75
2022-08-20T13:43:30.434Z,98638.63
2022-08-20T13:46:32.139Z,98638.25
2022-08-20T13:49:34.194Z,98633.09
2022-08-20T13:52:37.444Z,98633.69
2022-08-20T13:55:39.248Z,98631.38
2022-08-20T13:58:41.054Z,98636.56
2022-08-20T14:01:43.095Z,98636.38
2022-08-20T14:04:45.449Z,98640.03
2022-08-20T14:07:48.156Z,98641.41
2022-08-20T14:10:51.587Z,98643.34
2022-08-20T14:13:53.444Z,98646.03
2022-08-20T14:16:55.240Z,98648.69
2022-08-20T14:20:01.419Z,98645.63
2022-08-20T14:23:05.225Z,98654.28
2022-08-20T14:26:06.920Z,98652.13
2022-08-20T14:29:08.669Z,98652.06
2022-08-20T14:32:10.878Z,98648.72
2022-08-20T14:35:13.730Z,98666.13
2022-08-20T14:38:15.507Z,98647.53
2022-08-20T14:41:17.290Z,98659.91
2022-08-20T14:44:18.984Z,98661.97
2022-08-20T14:47:26.190Z,98667.75
2022-08-20T14:50:33.634Z,98665.44
2022-08-20T14:53:40.470Z,98671.25
2022-08-20T14:56:42.536Z,98667.78
2022-08-20T14:59:45.361Z,98672.41
2022-08-20T15:02:47.724Z,98669.75
2022-08-20T15:05:50.333Z,98678.47
2022-08-20T15:08:52.091Z,98687.78
2022-08-20T15:11:53.825Z,98678.34
2022-08-20T15:14:55.505Z,98687.31
2022-08-20T15:18:01.469Z,98692.78
2022-08-20T15:21:03.586Z,98681.59
2022-08-20T15:24:15.755Z,98692.22
2022-08-20T15:27:23.918Z,98689.25
2022-08-20T15:30:25.804Z,98684.59
2022-08-20T15:33:27.537Z,98683.41
2022-08-20T15:36:29.240Z,98685.06
2022-08-20T15:39:31.021Z,98688.41
2022-08-20T15:42:32.917Z,98684.50
2022-08-20T15:45:35.954Z,98688.88
2022-08-20T15:48:41.810Z,98687.28
2022-08-20T15:51:47.693Z,98692.75
2022-08-20T15:54:49.473Z,98693.25
2022-08-20T15:58:42.765Z,98681.25
2022-08-20T16:02:05.720Z,98685.63
2022-08-20T16:05:11.223Z,98685.31
2022-08-20T16:08:31.754Z,98687.75
2022-08-20T16:11:58.456Z,98684.53
2022-08-20T16:15:05.205Z,98688.19
2022-08-20T16:18:35.851Z,98692.38
2022-08-20T16:21:40.728Z,98692.28
2022-08-20T16:24:42.499Z,98696.06
2022-08-20T16:28:04.898Z,98699.59
2022-08-20T16:31:12.053Z,98702.31
2022-08-20T16:34:47.569Z,98699.06
2022-08-20T16:37:55.460Z,98685.44
2022-08-20T16:41:06.833Z,98689.50
2022-08-20T16:44:21.304Z,98690.63
2022-08-20T16:47:31.788Z,98695.31
2022-08-20T16:50:57.237Z,98693.56
2022-08-20T16:53:58.930Z,98700.69
2022-08-20T16:57:04.800Z,98701.53
2022-08-20T17:00:13.822Z,98707.81
2022-08-20T17:03:38.639Z,98706.00
2022-08-20T17:06:48.282Z,98704.22
2022-08-20T17:09:52.212Z,98707.72
2022-08-20T17:13:22.506Z,98711.25
2022-08-20T17:16:25.726Z,98717.44
2022-08-20T17:19:33.887Z,98721.38
2022-08-20T17:22:49.266Z,98725.78
2022-08-20T17:26:01.969Z,98721.16
2022-08-20T17:29:15.352Z,98716.75
2022-08-20T17:32:22.723Z,98723.91
2022-08-20T17:35:32.545Z,98719.19
2022-08-20T17:38:59.282Z,98725.38
2022-08-20T17:42:08.996Z,98724.56
2022-08-20T17:45:25.013Z,98726.56
2022-08-20T17:48:38.943Z,98739.31
2022-08-20T17:51:53.876Z,98733.91
2022-08-20T17:54:55.602Z,98737.84
2022-08-20T17:58:02.637Z,98733.00
2022-08-20T18:04:11.489Z,98750.69
2022-08-20T18:07:28.068Z,98746.88
2022-08-20T18:10:30.895Z,98749.75
2022-08-20T18:13:48.071Z,98755.03
2022-08-20T18:17:10.943Z,98757.66
2022-08-20T18:20:18.647Z,98754.19
2022-08-20T18:23:41.026Z,98768.66
2022-08-20T18:26:56.946Z,98772.31
2022-08-20T18:30:00.433Z,98780.34
2022-08-20T18:33:08.694Z,98787.91
2022-08-20T18:36:24.635Z,98785.94
2022-08-20T18:39:35.483Z,98788.41
2022-08-20T18:42:37.585Z,98791.75
2022-08-20T18:45:39.732Z,98793.88
2022-08-20T18:48:51.217Z,98804.97
2022-08-20T18:51:53.111Z,98803.56
2022-08-20T18:55:01.168Z,98805.72
2022-08-20T18:58:08.019Z,98809.88
2022-08-20T19:01:13.591Z,98807.91
2022-08-20T19:04:29.700Z,98815.03
2022-08-20T19:07:47.938Z,98818.09
2022-08-20T19:11:06.878Z,98820.06
2022-08-20T19:14:33.654Z,98810.06
2022-08-20T19:17:57.446Z,98806.59
2022-08-20T19:21:02.260Z,98810.19
2022-08-20T19:24:06.633Z,98806.66
2022-08-20T19:27:09.664Z,98815.47
2022-08-20T19:30:11.738Z,98809.88
2022-08-20T19:33:13.837Z,98811.75
2022-08-20T19:36:28.208Z,98810.06
2022-08-20T19:39:31.951Z,98813.50
2022-08-20T19:42:42.483Z,98812.81
2022-08-20T19:45:56.164Z,98810.44
2022-08-20T19:49:09.555Z,98812.41
2022-08-20T19:52:22.577Z,98810.59
2022-08-20T19:55:37.902Z,98815.84
2022-08-20T19:58:40.564Z,98812.13
2022-08-20T20:01:52.552Z,98809.50
2022-08-20T20:04:54.902Z,98814.75
2022-08-20T20:07:58.797Z,98813.91
2022-08-20T20:11:00.875Z,98818.56
2022-08-20T20:14:08.989Z,98812.84
2022-08-20T20:17:21.010Z,98813.00
2022-08-20T20:20:30.978Z,98814.75
2022-08-20T20:23:38.512Z,98820.91
2022-08-20T20:26:49.331Z,98819.22
2022-08-20T20:30:02.858Z,98810.53
2022-08-20T20:33:17.310Z,98813.88
2022-08-20T20:36:32.885Z,98811.06
2022-08-20T20:39:45.962Z,98812.75
2022-08-20T20:43:00.188Z,98810.28
2022-08-20T20:46:16.010Z,98799.97
2022-08-20T20:49:30.220Z,98797.53
2022-08-20T20:52:54.631Z,98800.34
2022-08-20T20:55:58.041Z,98805.88
2022-08-20T20:59:05.923Z,98809.41
2022-08-20T21:02:09.428Z,98816.31
2022-08-20T21:05:13.088Z,98816.44
2022-08-20T21:08:14.966Z,98820.78
2022-08-20T21:11:16.704Z,98809.28
2022-08-20T21:14:18.907Z,98822.22
2022-08-20T21:17:22.774Z,98822.78
2022-08-20T21:20:24.922Z,98818.81
2022-08-20T21:23:40.227Z,98821.63
2022-08-20T21:26:44.714Z,98818.56
2022-08-20T21:29:46.638Z,98818.06
2022-08-20T21:32:49.392Z,98809.88
2022-08-20T21:35:53.938Z,98807.97
2022-08-20T21:38:56.222Z,98812.56
2022-08-20T21:42:01.263Z,98807.97
2022-08-20T21:45:03.611Z,98810.06
2022-08-20T21:48:05.530Z,98801.97
2022-08-20T21:51:07.260Z,98809.75
2022-08-20T21:54:08.964Z,98799.53
2022-08-20T21:57:19.615Z,98802.34
2022-08-20T22:00:49.936Z,98813.06
2022-08-20T22:03:52.032Z,98806.13
2022-08-20T22:06:54.224Z,98799.41
2022-08-20T22:09:55.994Z,98799.06
2022-08-20T22:12:58.287Z,98794.34
2022-08-20T22:16:03.538Z,98787.88
2022-08-20T22:19:05.287Z,98790.22
2022-08-20T22:22:10.698Z,98788.25
2022-08-20T22:25:12.502Z,98778.41
2022-08-20T22:28:15.485Z,98783.78
2022-08-20T22:31:25.706Z,98783.56
2022-08-20T22:34:31.284Z,98781.09
2022-08-20T22:37:33.284Z,98779.34
2022-08-20T22:40:36.768Z,98772.31
2022-08-20T22:43:46.271Z,98771.25
2022-08-20T22:47:04.797Z,98765.59
2022-08-20T22:50:07.879Z,98768.31
2022-08-20T22:53:10.837Z,98759.59
2022-08-20T22:56:19.919Z,98759.72
2022-08-20T22:59:24.329Z,98760.09
2022-08-20T23:02:26.273Z,98762.09
2022-08-20T23:05:31.050Z,98753.88
2022-08-20T23:08:32.921Z,98755.16
2022-08-20T23:11:34.708Z,98751.97
2022-08-20T23:14:36.906Z,98743.63
2022-08-20T23:17:38.901Z,98744.25
2022-08-20T23:20:43.094Z,98743.75
2022-08-20T23:23:44.867Z,98743.41
2022-08-20T23:26:53.367Z,98746.47
2022-08-20T23:29:55.449Z,98752.22
2022-08-20T23:32:57.372Z,98752.13
2022-08-20T23:36:04.197Z,98759.84
2022-08-20T23:39:07.446Z,98755.03
2022-08-20T23:42:11.010Z,98747.53
2022-08-20T23:45:13.896Z,98756.69
2022-08-20T23:48:15.680Z,98749.16
2022-08-20T23:51:17.502Z,98749.84
2022-08-20T23:54:19.622Z,98745.38
2022-08-20T23:57:21.319Z,98740.94
